createdAt,value
2022-09-03T00:00:11.769Z,16.66
2022-09-03T00:01:25.850Z,16.71
2022-09-03T00:02:46.368Z,16.73
2022-09-03T00:04:11.381Z,16.75
2022-09-03T00:05:27.194Z,16.78
2022-09-03T00:06:49.469Z,16.76
2022-09-03T00:08:14.597Z,16.81
2022-09-03T00:09:45.112Z,16.77
2022-09-03T00:11:19.305Z,16.77
2022-09-03T00:12:32.265Z,16.72
2022-09-03T00:14:09.578Z,16.73
2022-09-03T00:15:23.934Z,16.72
2022-09-03T00:16:41.510Z,16.69
2022-09-03T00:18:17.044Z,16.71
2022-09-03T00:19:29.192Z,16.64
2022-09-03T00:20:41.789Z,16.61
2022-09-03T00:22:00.077Z,16.51
2022-09-03T00:23:14.875Z,16.64
2022-09-03T00:24:24.265Z,16.64
2022-09-03T00:25:43.301Z,16.64
2022-09-03T00:26:57.507Z,16.60
2022-09-03T00:28:09.100Z,16.45
2022-09-03T00:29:39.955Z,16.53
2022-09-03T00:30:55.804Z,16.50
2022-09-03T00:32:18.099Z,16.48
2022-09-03T00:33:28.703Z,16.51
2022-09-03T00:34:41.477Z,16.52
2022-09-03T00:36:03.321Z,16.50
2022-09-03T00:37:14.258Z,16.52
2022-09-03T00:38:20.236Z,16.53
2022-09-03T00:39:28.308Z,16.55
2022-09-03T00:41:06.869Z,16.61
2022-09-03T00:42:48.943Z,16.64
2022-09-03T00:44:10.081Z,16.60
2022-09-03T00:45:56.646Z,16.59
2022-09-03T00:47:16.349Z,16.59
2022-09-03T00:48:35.971Z,16.54
2022-09-03T00:50:17.788Z,16.56
2022-09-03T00:51:35.729Z,16.50
2022-09-03T00:53:31.801Z,16.48
2022-09-03T00:55:11.497Z,16.49
2022-09-03T00:56:45.338Z,16.49
2022-09-03T00:58:38.106Z,16.38
2022-09-03T00:59:59.105Z,16.47
2022-09-03T01:01:25.543Z,16.53
2022-09-03T01:03:11.769Z,16.58
2022-09-03T01:04:56.283Z,16.57
2022-09-03T01:06:23.810Z,16.54
2022-09-03T01:08:05.159Z,16.54
2022-09-03T01:09:48.351Z,16.49
2022-09-03T01:11:23.502Z,16.50
2022-09-03T01:13:02.319Z,16.48
2022-09-03T01:14:43.413Z,16.48
2022-09-03T01:16:11.158Z,16.45
2022-09-03T01:18:06.822Z,16.49
2022-09-03T01:20:00.007Z,16.48
2022-09-03T01:21:52.271Z,16.46
2022-09-03T01:23:36.157Z,16.48
2022-09-03T01:25:20.226Z,16.44
2022-09-03T01:26:35.437Z,16.44
2022-09-03T01:28:35.057Z,16.44
2022-09-03T01:30:18.186Z,16.41
2022-09-03T01:31:46.226Z,16.41
2022-09-03T01:33:32.295Z,16.39
2022-09-03T01:35:09.839Z,16.23
2022-09-03T01:36:54.945Z,16.33
2022-09-03T01:38:06.957Z,16.30
2022-09-03T01:39:22.528Z,16.16
2022-09-03T01:40:48.062Z,16.26
2022-09-03T01:42:20.417Z,16.26
2022-09-03T01:43:51.853Z,16.30
2022-09-03T01:45:33.554Z,16.33
2022-09-03T01:46:42.757Z,16.31
2022-09-03T01:48:27.084Z,16.24
2022-09-03T01:49:41.640Z,16.22
2022-09-03T01:51:00.403Z,16.17
2022-09-03T01:52:19.880Z,16.15
2022-09-03T01:54:25.013Z,16.11
2022-09-03T01:56:22.524Z,16.08
2022-09-03T01:57:51.068Z,16.08
2022-09-03T01:59:18.517Z,16.02
2022-09-03T02:00:23.235Z,16.00
2022-09-03T02:01:34.797Z,15.92
2022-09-03T02:02:39.315Z,15.94
2022-09-03T02:03:47.280Z,15.94
2022-09-03T02:05:09.466Z,15.91
2022-09-03T02:06:13.258Z,15.87
2022-09-03T02:07:16.948Z,15.78
2022-09-03T02:08:20.958Z,15.77
2022-09-03T02:09:25.000Z,15.80
2022-09-03T02:10:53.916Z,15.74
2022-09-03T02:12:17.187Z,15.79
2022-09-03T02:13:36.390Z,15.71
2022-09-03T02:14:40.670Z,15.80
2022-09-03T02:15:48.886Z,15.79
2022-09-03T02:16:53.067Z,15.78
2022-09-03T02:18:02.559Z,15.81
2022-09-03T02:19:12.934Z,15.81
2022-09-03T02:20:22.178Z,15.79
2022-09-03T02:21:34.257Z,15.77
2022-09-03T02:22:40.878Z,15.83
2022-09-03T02:23:44.813Z,15.84
2022-09-03T02:24:48.431Z,15.85
2022-09-03T02:26:01.877Z,15.74
2022-09-03T02:27:05.698Z,15.81
2022-09-03T02:28:15.732Z,15.79
2022-09-03T02:29:22.502Z,15.75
2022-09-03T02:30:26.296Z,15.77
2022-09-03T02:31:30.382Z,15.75
2022-09-03T02:32:34.265Z,15.67
2022-09-03T02:33:42.833Z,15.72
2022-09-03T02:34:47.419Z,15.74
2022-09-03T02:35:52.161Z,15.73
2022-09-03T02:36:55.702Z,15.70
2022-09-03T02:38:21.305Z,15.71
2022-09-03T02:39:24.938Z,15.71
2022-09-03T02:40:28.594Z,15.67
2022-09-03T02:41:33.618Z,15.66
2022-09-03T02:42:37.358Z,15.61
2022-09-03T02:43:52.761Z,15.63
2022-09-03T02:45:20.590Z,15.58
2022-09-03T02:46:33.677Z,15.62
2022-09-03T02:47:44.015Z,15.65
2022-09-03T02:48:47.592Z,15.66
2022-09-03T02:49:51.192Z,15.60
2022-09-03T02:50:55.260Z,15.58
2022-09-03T02:52:06.828Z,15.63
2022-09-03T02:53:10.778Z,15.65
2022-09-03T02:54:18.900Z,15.61
2022-09-03T02:55:24.411Z,15.63
2022-09-03T02:56:28.445Z,15.60
2022-09-03T02:57:32.210Z,15.60
2022-09-03T02:58:35.961Z,15.63
2022-09-03T02:59:41.829Z,15.61
2022-09-03T03:00:45.483Z,15.58
2022-09-03T03:01:49.787Z,15.56
2022-09-03T03:02:55.344Z,15.53
2022-09-03T03:03:59.302Z,15.49
2022-09-03T03:05:03.172Z,15.48
2022-09-03T03:06:07.419Z,15.46
2022-09-03T03:07:11.011Z,15.47
2022-09-03T03:08:21.473Z,15.41
2022-09-03T03:09:25.460Z,15.40
2022-09-03T03:10:29.013Z,15.41
2022-09-03T03:11:33.319Z,15.43
2022-09-03T03:12:37.976Z,15.43
2022-09-03T03:13:41.830Z,15.43
2022-09-03T03:14:45.525Z,15.41
2022-09-03T03:15:49.217Z,15.42
2022-09-03T03:16:52.856Z,15.35
2022-09-03T03:17:57.608Z,15.37
2022-09-03T03:19:01.345Z,15.31
2022-09-03T03:20:05.364Z,15.26
2022-09-03T03:21:12.843Z,15.30
2022-09-03T03:22:16.392Z,15.27
2022-09-03T03:23:20.358Z,15.26
2022-09-03T03:24:24.113Z,15.22
2022-09-03T03:25:28.037Z,15.21
2022-09-03T03:26:31.858Z,15.13
2022-09-03T03:27:36.156Z,15.13
2022-09-03T03:28:42.609Z,15.12
2022-09-03T03:29:46.389Z,15.11
2022-09-03T03:30:50.310Z,15.09
2022-09-03T03:31:54.695Z,15.11
2022-09-03T03:32:58.561Z,15.08
2022-09-03T03:34:03.949Z,15.04
2022-09-03T03:35:08.349Z,15.03
2022-09-03T03:36:16.228Z,14.98
2022-09-03T03:37:19.810Z,14.95
2022-09-03T03:38:23.496Z,14.78
2022-09-03T03:39:27.149Z,14.98
2022-09-03T03:40:31.693Z,14.94
2022-09-03T03:41:36.826Z,14.89
2022-09-03T03:42:40.498Z,14.85
2022-09-03T03:43:45.368Z,14.98
2022-09-03T03:44:48.850Z,14.99
2022-09-03T03:46:01.454Z,14.95
2022-09-03T03:47:06.183Z,15.00
2022-09-03T03:48:09.735Z,14.92
2022-09-03T03:49:13.351Z,14.94
2022-09-03T03:50:17.508Z,14.96
2022-09-03T03:51:21.342Z,14.98
2022-09-03T03:52:27.398Z,14.99
2022-09-03T03:53:31.865Z,14.99
2022-09-03T03:54:35.532Z,14.87
2022-09-03T03:55:39.364Z,14.99
2022-09-03T03:56:43.099Z,14.97
2022-09-03T03:57:46.779Z,14.93
2022-09-03T03:58:50.384Z,14.95
2022-09-03T03:59:53.900Z,14.96
2022-09-03T04:01:09.970Z,14.85
2022-09-03T04:02:14.959Z,14.91
2022-09-03T04:03:19.508Z,14.94
2022-09-03T04:04:23.112Z,14.92
2022-09-03T04:05:26.641Z,14.84
2022-09-03T04:06:30.531Z,14.88
2022-09-03T04:07:34.281Z,14.83
2022-09-03T04:08:40.996Z,14.90
2022-09-03T04:09:44.949Z,14.84
2022-09-03T04:10:48.951Z,14.92
2022-09-03T04:11:52.605Z,14.91
2022-09-03T04:12:56.527Z,14.89
2022-09-03T04:14:00.141Z,14.88
2022-09-03T04:15:04.249Z,14.91
2022-09-03T04:16:15.872Z,14.90
2022-09-03T04:17:24.551Z,14.87
2022-09-03T04:18:30.143Z,14.82
2022-09-03T04:19:33.727Z,14.82
2022-09-03T04:20:37.874Z,14.81
2022-09-03T04:21:41.567Z,14.81
2022-09-03T04:22:46.540Z,14.79
2022-09-03T04:23:54.357Z,14.80
2022-09-03T04:24:57.937Z,14.76
2022-09-03T04:26:01.916Z,14.78
2022-09-03T04:27:06.028Z,14.78
2022-09-03T04:28:09.554Z,14.76
2022-09-03T04:29:13.282Z,14.78
2022-09-03T04:30:16.836Z,14.67
2022-09-03T04:31:21.915Z,14.70
2022-09-03T04:32:44.343Z,14.70
2022-09-03T04:33:48.158Z,14.72
2022-09-03T04:34:51.937Z,14.66
2022-09-03T04:36:10.853Z,14.64
2022-09-03T04:37:16.556Z,14.57
2022-09-03T04:38:20.269Z,14.69
2022-09-03T04:39:23.997Z,14.72
2022-09-03T04:40:27.734Z,14.74
2022-09-03T04:41:32.423Z,14.77
2022-09-03T04:42:36.112Z,14.79
2022-09-03T04:43:42.578Z,14.81
2022-09-03T04:44:46.063Z,14.79
2022-09-03T04:45:49.842Z,14.79
2022-09-03T04:46:53.587Z,14.82
2022-09-03T04:48:00.295Z,14.81
2022-09-03T04:49:04.048Z,14.93
2022-09-03T04:50:08.307Z,14.93
2022-09-03T04:51:15.670Z,14.99
2022-09-03T04:52:19.720Z,15.03
2022-09-03T04:53:23.339Z,15.09
2022-09-03T04:54:28.109Z,15.04
2022-09-03T04:55:37.778Z,15.12
2022-09-03T04:56:41.708Z,15.16
2022-09-03T04:57:45.263Z,15.21
2022-09-03T04:58:55.775Z,15.23
2022-09-03T04:59:59.372Z,15.32
2022-09-03T05:01:09.619Z,15.37
2022-09-03T05:02:14.683Z,15.34
2022-09-03T05:03:18.262Z,15.49
2022-09-03T05:04:21.783Z,15.52
2022-09-03T05:05:25.481Z,15.60
2022-09-03T05:06:31.967Z,15.63
2022-09-03T05:07:38.924Z,15.73
2022-09-03T05:08:46.555Z,15.73
2022-09-03T05:09:51.420Z,15.75
2022-09-03T05:11:01.804Z,15.70
2022-09-03T05:12:06.065Z,15.74
2022-09-03T05:13:09.966Z,15.75
2022-09-03T05:14:13.708Z,15.75
2022-09-03T05:15:17.342Z,15.79
2022-09-03T05:16:23.833Z,15.87
2022-09-03T05:17:28.225Z,15.95
2022-09-03T05:18:32.369Z,16.00
2022-09-03T05:19:35.895Z,16.12
2022-09-03T05:20:39.397Z,16.08
2022-09-03T05:21:43.352Z,16.15
2022-09-03T05:22:46.816Z,16.16
2022-09-03T05:23:52.324Z,16.14
2022-09-03T05:24:56.431Z,16.22
2022-09-03T05:26:10.911Z,16.27
2022-09-03T05:27:18.025Z,16.34
2022-09-03T05:28:21.526Z,16.38
2022-09-03T05:29:26.476Z,16.40
2022-09-03T05:30:30.407Z,16.39
2022-09-03T05:31:39.140Z,16.38
2022-09-03T05:32:43.193Z,16.35
2022-09-03T05:33:53.564Z,16.33
2022-09-03T05:34:57.292Z,16.26
2022-09-03T05:36:07.835Z,16.22
2022-09-03T05:37:12.762Z,16.20
2022-09-03T05:38:17.218Z,16.19
2022-09-03T05:39:20.810Z,16.20
2022-09-03T05:40:24.565Z,16.23
2022-09-03T05:41:29.886Z,16.25
2022-09-03T05:42:35.411Z,16.27
2022-09-03T05:43:39.588Z,16.27
2022-09-03T05:44:44.249Z,16.25
2022-09-03T05:45:49.318Z,16.25
2022-09-03T05:46:53.620Z,16.28
2022-09-03T05:48:01.880Z,16.31
2022-09-03T05:49:07.969Z,16.22
2022-09-03T05:50:11.559Z,16.22
2022-09-03T05:51:20.443Z,16.27
2022-09-03T05:52:24.008Z,16.23
2022-09-03T05:53:29.544Z,16.26
2022-09-03T05:54:33.047Z,16.31
2022-09-03T05:55:36.627Z,16.27
2022-09-03T05:56:42.735Z,16.30
2022-09-03T05:57:52.536Z,16.34
2022-09-03T05:59:05.669Z,16.43
2022-09-03T06:00:10.931Z,16.50
2022-09-03T06:01:17.420Z,16.57
2022-09-03T06:02:21.174Z,16.59
2022-09-03T06:03:25.307Z,16.80
2022-09-03T06:04:29.082Z,16.92
2022-09-03T06:05:32.664Z,17.06
2022-09-03T06:06:39.843Z,17.19
2022-09-03T06:07:43.485Z,17.43
2022-09-03T06:08:51.686Z,17.56
2022-09-03T06:09:55.422Z,17.79
2022-09-03T06:11:01.430Z,18.00
2022-09-03T06:12:05.517Z,18.37
2022-09-03T06:13:09.343Z,18.69
2022-09-03T06:14:14.656Z,18.96
2022-09-03T06:15:18.284Z,19.07
2022-09-03T06:16:30.652Z,19.35
2022-09-03T06:17:37.764Z,19.62
2022-09-03T06:18:41.401Z,19.86
2022-09-03T06:19:45.083Z,20.02
2022-09-03T06:21:00.226Z,20.31
2022-09-03T06:22:04.202Z,20.46
2022-09-03T06:23:07.789Z,20.57
2022-09-03T06:24:17.987Z,20.68
2022-09-03T06:25:22.096Z,20.68
2022-09-03T06:26:28.245Z,20.56
2022-09-03T06:27:31.763Z,20.58
2022-09-03T06:28:38.227Z,20.47
2022-09-03T06:29:42.029Z,20.34
2022-09-03T06:30:45.563Z,20.19
2022-09-03T06:31:50.963Z,20.05
2022-09-03T06:32:54.785Z,19.89
2022-09-03T06:34:03.402Z,19.75
2022-09-03T06:35:08.851Z,19.64
2022-09-03T06:36:16.111Z,19.46
2022-09-03T06:37:19.710Z,19.40
2022-09-03T06:38:24.006Z,19.27
2022-09-03T06:39:27.769Z,19.20
2022-09-03T06:40:31.961Z,19.12
2022-09-03T06:41:35.788Z,19.06
2022-09-03T06:42:41.555Z,19.01
2022-09-03T06:43:49.627Z,18.99
2022-09-03T06:44:53.214Z,18.98
2022-09-03T06:46:03.371Z,18.85
2022-09-03T06:47:07.008Z,18.91
2022-09-03T06:48:10.558Z,18.83
2022-09-03T06:49:14.788Z,18.70
2022-09-03T06:50:18.592Z,18.68
2022-09-03T06:51:26.915Z,18.64
2022-09-03T06:52:30.388Z,18.66
2022-09-03T06:53:38.233Z,18.62
2022-09-03T06:54:42.323Z,18.63
2022-09-03T06:56:01.860Z,18.60
2022-09-03T06:57:05.664Z,18.69
2022-09-03T06:58:10.900Z,18.73
2022-09-03T06:59:15.761Z,18.81
2022-09-03T07:00:19.396Z,18.93
2022-09-03T07:01:26.730Z,18.99
2022-09-03T07:02:30.402Z,19.18
2022-09-03T07:03:38.962Z,19.29
2022-09-03T07:04:42.624Z,19.48
2022-09-03T07:05:48.415Z,19.64
2022-09-03T07:06:52.001Z,19.74
2022-09-03T07:07:55.596Z,19.81
2022-09-03T07:08:59.899Z,19.91
2022-09-03T07:10:03.741Z,19.93
2022-09-03T07:11:11.624Z,19.98
2022-09-03T07:12:18.777Z,19.91
2022-09-03T07:13:22.809Z,19.75
2022-09-03T07:14:26.350Z,19.73
2022-09-03T07:15:30.823Z,19.59
2022-09-03T07:16:37.452Z,19.60
2022-09-03T07:17:41.322Z,19.59
2022-09-03T07:18:46.039Z,19.47
2022-09-03T07:19:49.600Z,19.51
2022-09-03T07:20:57.480Z,19.43
2022-09-03T07:22:01.475Z,19.42
2022-09-03T07:23:05.046Z,19.29
2022-09-03T07:24:10.019Z,19.36
2022-09-03T07:25:13.713Z,19.35
2022-09-03T07:26:26.358Z,19.39
2022-09-03T07:27:30.451Z,19.28
2022-09-03T07:28:37.949Z,19.25
2022-09-03T07:29:41.635Z,19.19
2022-09-03T07:30:45.168Z,18.98
2022-09-03T07:31:53.664Z,19.04
2022-09-03T07:33:01.888Z,19.06
2022-09-03T07:34:12.768Z,19.06
2022-09-03T07:35:16.590Z,18.89
2022-09-03T07:36:20.091Z,19.04
2022-09-03T07:37:23.643Z,19.07
2022-09-03T07:38:27.338Z,19.11
2022-09-03T07:39:30.880Z,19.12
2022-09-03T07:40:34.577Z,19.08
2022-09-03T07:41:39.030Z,19.00
2022-09-03T07:42:42.675Z,19.02
2022-09-03T07:43:47.273Z,19.08
2022-09-03T07:44:50.851Z,18.96
2022-09-03T07:45:56.114Z,18.96
2022-09-03T07:47:00.891Z,18.84
2022-09-03T07:48:04.819Z,18.78
2022-09-03T07:49:08.526Z,18.88
2022-09-03T07:50:12.300Z,18.91
2022-09-03T07:51:16.064Z,18.93
2022-09-03T07:52:19.696Z,19.08
2022-09-03T07:53:23.401Z,19.10
2022-09-03T07:54:27.514Z,19.06
2022-09-03T07:55:31.399Z,19.14
2022-09-03T07:56:36.443Z,19.16
2022-09-03T07:57:40.355Z,19.21
2022-09-03T07:58:43.956Z,19.15
2022-09-03T07:59:48.152Z,19.15
2022-09-03T08:00:51.694Z,19.13
2022-09-03T08:01:55.552Z,19.08
2022-09-03T08:03:04.252Z,19.12
2022-09-03T08:04:09.757Z,19.09
2022-09-03T08:05:13.818Z,18.99
2022-09-03T08:06:20.576Z,19.04
2022-09-03T08:07:24.294Z,18.98
2022-09-03T08:08:35.478Z,19.01
2022-09-03T08:09:39.355Z,19.01
2022-09-03T08:10:42.829Z,19.00
2022-09-03T08:11:46.314Z,19.05
2022-09-03T08:12:50.826Z,19.17
2022-09-03T08:14:02.676Z,19.34
2022-09-03T08:15:07.023Z,19.44
2022-09-03T08:16:17.204Z,19.52
2022-09-03T08:17:20.782Z,19.67
2022-09-03T08:18:24.564Z,19.74
2022-09-03T08:19:28.259Z,19.80
2022-09-03T08:20:32.478Z,19.86
2022-09-03T08:21:36.464Z,19.92
2022-09-03T08:22:39.947Z,19.93
2022-09-03T08:23:49.831Z,19.83
2022-09-03T08:24:54.678Z,19.87
2022-09-03T08:26:02.196Z,19.92
2022-09-03T08:27:05.807Z,19.94
2022-09-03T08:28:09.314Z,19.93
2022-09-03T08:29:13.107Z,19.88
2022-09-03T08:30:17.797Z,19.67
2022-09-03T08:31:25.262Z,19.73
2022-09-03T08:32:28.821Z,19.55
2022-09-03T08:33:38.904Z,19.49
2022-09-03T08:34:42.608Z,19.45
2022-09-03T08:35:54.880Z,19.52
2022-09-03T08:37:01.521Z,19.62
2022-09-03T08:38:23.452Z,19.71
2022-09-03T08:39:27.096Z,19.85
2022-09-03T08:40:34.086Z,19.96
2022-09-03T08:42:21.353Z,20.03
2022-09-03T08:43:25.548Z,19.99
2022-09-03T08:45:02.731Z,19.88
2022-09-03T08:46:07.370Z,19.89
2022-09-03T08:47:34.902Z,19.78
2022-09-03T08:48:38.438Z,19.71
2022-09-03T08:50:18.311Z,19.51
2022-09-03T08:51:28.198Z,19.41
2022-09-03T08:52:49.265Z,19.24
2022-09-03T08:53:57.505Z,19.26
2022-09-03T08:55:19.186Z,19.28
2022-09-03T08:56:29.787Z,19.26
2022-09-03T08:57:43.567Z,19.25
2022-09-03T08:58:47.280Z,19.33
2022-09-03T09:00:00.108Z,19.37
2022-09-03T09:01:40.076Z,19.33
2022-09-03T09:03:07.975Z,19.36
2022-09-03T09:04:35.226Z,19.33
2022-09-03T09:06:00.443Z,19.26
2022-09-03T09:07:21.985Z,19.22
2022-09-03T09:08:53.350Z,19.26
2022-09-03T09:10:04.157Z,19.32
2022-09-03T09:11:44.093Z,19.37
2022-09-03T09:13:41.632Z,19.35
2022-09-03T09:15:37.705Z,19.37
2022-09-03T09:17:00.884Z,19.29
2022-09-03T09:18:31.469Z,19.27
2022-09-03T09:20:17.466Z,19.15
2022-09-03T09:21:46.277Z,19.10
2022-09-03T09:23:04.936Z,19.12
2022-09-03T09:24:27.323Z,19.19
2022-09-03T09:25:32.791Z,19.18
2022-09-03T09:26:36.288Z,19.12
2022-09-03T09:27:51.783Z,19.08
2022-09-03T09:29:04.621Z,19.03
2022-09-03T09:30:18.233Z,18.90
2022-09-03T09:31:22.348Z,18.96
2022-09-03T09:32:25.915Z,18.92
2022-09-03T09:33:32.637Z,18.91
2022-09-03T09:34:41.347Z,18.95
2022-09-03T09:35:46.100Z,18.98
2022-09-03T09:36:54.806Z,19.13
2022-09-03T09:38:02.396Z,19.16
2022-09-03T09:39:11.969Z,19.21
2022-09-03T09:40:44.923Z,19.28
2022-09-03T09:42:11.566Z,19.25
2022-09-03T09:43:21.820Z,19.23
2022-09-03T09:44:27.047Z,19.18
2022-09-03T09:45:32.617Z,19.15
2022-09-03T09:46:41.331Z,19.17
2022-09-03T09:47:47.378Z,19.16
2022-09-03T09:48:59.435Z,19.22
2022-09-03T09:50:04.643Z,19.30
2022-09-03T09:51:18.251Z,19.39
2022-09-03T09:52:26.144Z,19.48
2022-09-03T09:53:30.492Z,19.60
2022-09-03T09:54:34.497Z,19.64
2022-09-03T09:55:58.228Z,19.73
2022-09-03T09:57:06.655Z,19.62
2022-09-03T09:58:14.442Z,19.47
2022-09-03T09:59:20.202Z,19.63
2022-09-03T10:00:23.729Z,19.60
2022-09-03T10:01:30.487Z,19.65
2022-09-03T10:02:36.797Z,19.72
2022-09-03T10:03:59.997Z,19.80
2022-09-03T10:05:37.061Z,19.82
2022-09-03T10:06:57.335Z,19.90
2022-09-03T10:08:16.711Z,19.78
2022-09-03T10:09:31.355Z,19.82
2022-09-03T10:10:47.235Z,19.86
2022-09-03T10:12:59.304Z,19.94
2022-09-03T10:14:06.215Z,19.90
2022-09-03T10:15:33.812Z,19.97
2022-09-03T10:16:49.158Z,19.95
2022-09-03T10:18:28.520Z,19.97
2022-09-03T10:20:33.999Z,20.04
2022-09-03T10:21:56.388Z,20.05
2022-09-03T10:23:18.981Z,20.05
2022-09-03T10:24:53.076Z,20.09
2022-09-03T10:26:11.459Z,20.19
2022-09-03T10:27:19.075Z,20.32
2022-09-03T10:28:28.078Z,20.37
2022-09-03T10:29:33.198Z,20.40
2022-09-03T10:31:44.886Z,20.59
2022-09-03T10:33:15.914Z,20.54
2022-09-03T10:34:53.336Z,20.66
2022-09-03T10:36:17.062Z,20.64
2022-09-03T10:38:01.601Z,20.63
2022-09-03T10:39:43.672Z,20.70
2022-09-03T10:41:08.397Z,20.69
2022-09-03T10:42:49.442Z,20.68
2022-09-03T10:44:28.945Z,20.56
2022-09-03T10:45:42.670Z,20.49
2022-09-03T10:47:37.092Z,20.53
2022-09-03T10:49:14.061Z,20.61
2022-09-03T10:50:23.776Z,20.72
2022-09-03T10:51:39.044Z,20.89
2022-09-03T10:53:25.755Z,21.00
2022-09-03T10:54:35.778Z,20.98
2022-09-03T10:56:05.739Z,20.89
2022-09-03T10:57:51.471Z,20.86
2022-09-03T10:59:29.316Z,20.87
2022-09-03T11:00:39.348Z,20.86
2022-09-03T11:02:12.206Z,20.70
2022-09-03T11:04:09.175Z,20.61
2022-09-03T11:06:03.904Z,20.58
2022-09-03T11:07:15.481Z,20.50
2022-09-03T11:08:43.159Z,20.49
2022-09-03T11:09:57.432Z,20.50
2022-09-03T11:11:33.248Z,20.49
2022-09-03T11:12:45.286Z,20.56
2022-09-03T11:14:03.784Z,20.55
2022-09-03T11:15:36.315Z,20.62
2022-09-03T11:16:55.026Z,20.63
2022-09-03T11:18:30.785Z,20.73
2022-09-03T11:19:51.129Z,20.70
2022-09-03T11:21:07.660Z,20.74
2022-09-03T11:22:20.900Z,20.71
2022-09-03T11:23:29.383Z,20.60
2022-09-03T11:24:40.049Z,20.50
2022-09-03T11:26:02.197Z,20.41
2022-09-03T11:27:33.322Z,20.22
2022-09-03T11:28:45.493Z,20.20
2022-09-03T11:30:10.446Z,20.24
2022-09-03T11:31:37.639Z,20.23
2022-09-03T11:32:53.579Z,20.23
2022-09-03T11:34:32.659Z,20.31
2022-09-03T11:35:36.380Z,20.36
2022-09-03T11:36:44.782Z,20.40
2022-09-03T11:38:27.657Z,20.33
2022-09-03T11:39:40.196Z,20.38
2022-09-03T11:41:14.378Z,20.37
2022-09-03T11:42:37.092Z,20.43
2022-09-03T11:43:42.969Z,20.52
2022-09-03T11:44:52.114Z,20.59
2022-09-03T11:46:29.972Z,20.82
2022-09-03T11:47:45.070Z,20.94
2022-09-03T11:48:58.470Z,21.07
2022-09-03T11:50:28.082Z,20.94
2022-09-03T11:51:37.841Z,21.03
2022-09-03T11:52:41.453Z,21.00
2022-09-03T11:54:13.967Z,20.89
2022-09-03T11:55:43.171Z,20.88
2022-09-03T11:56:49.851Z,20.86
2022-09-03T11:57:53.552Z,20.88
2022-09-03T11:59:24.677Z,20.90
2022-09-03T12:00:28.319Z,21.00
2022-09-03T12:01:35.525Z,20.94
2022-09-03T12:02:54.305Z,20.87
2022-09-03T12:04:06.282Z,20.80
2022-09-03T12:05:54.416Z,20.87
2022-09-03T12:07:24.906Z,20.86
2022-09-03T12:09:06.025Z,20.86
2022-09-03T12:10:22.723Z,20.87
2022-09-03T12:12:28.179Z,20.93
2022-09-03T12:13:56.602Z,20.92
2022-09-03T12:15:25.982Z,20.86
2022-09-03T12:17:04.678Z,20.93
2022-09-03T12:18:31.115Z,20.92
2022-09-03T12:19:58.926Z,20.90
2022-09-03T12:21:08.570Z,20.90
2022-09-03T12:22:17.752Z,20.96
2022-09-03T12:23:50.286Z,20.95
2022-09-03T12:24:54.522Z,20.89
2022-09-03T12:26:09.708Z,20.90
2022-09-03T12:27:24.927Z,20.85
2022-09-03T12:28:31.167Z,20.86
2022-09-03T12:29:34.864Z,20.86
2022-09-03T12:30:39.388Z,20.88
2022-09-03T12:31:50.336Z,20.83
2022-09-03T12:33:06.787Z,20.88
2022-09-03T12:34:15.201Z,20.84
2022-09-03T12:36:54.788Z,20.93
2022-09-03T12:38:08.307Z,20.96
2022-09-03T12:42:31.458Z,20.89
2022-09-03T12:43:39.237Z,20.90
2022-09-03T12:44:43.359Z,20.87
2022-09-03T12:47:40.614Z,20.79
2022-09-03T12:50:23.760Z,20.87
2022-09-03T12:53:03.773Z,20.93
2022-09-03T12:54:16.067Z,20.90
2022-09-03T12:55:31.433Z,20.92
2022-09-03T12:56:42.209Z,20.90
2022-09-03T12:57:56.952Z,20.95
2022-09-03T12:59:15.790Z,20.99
2022-09-03T13:00:19.997Z,21.09
2022-09-03T13:01:36.770Z,21.13
2022-09-03T13:03:16.872Z,21.08
2022-09-03T13:04:32.936Z,21.02
2022-09-03T13:05:48.749Z,21.05
2022-09-03T13:07:07.273Z,21.14
2022-09-03T13:08:21.792Z,21.01
2022-09-03T13:09:30.111Z,21.13
2022-09-03T13:10:42.433Z,21.08
2022-09-03T13:11:46.058Z,21.10
2022-09-03T13:12:53.172Z,20.99
2022-09-03T13:14:14.779Z,21.01
2022-09-03T13:15:30.923Z,20.98
2022-09-03T13:16:46.490Z,20.85
2022-09-03T13:18:06.401Z,20.82
2022-09-03T13:19:52.339Z,20.91
2022-09-03T13:21:39.957Z,20.86
2022-09-03T13:23:12.096Z,20.97
2022-09-03T13:25:02.306Z,20.99
2022-09-03T13:26:40.803Z,21.04
2022-09-03T13:27:53.029Z,21.11
2022-09-03T13:29:23.325Z,21.16
2022-09-03T13:30:48.941Z,21.24
2022-09-03T13:32:25.938Z,21.31
2022-09-03T13:33:56.776Z,21.37
2022-09-03T13:35:40.628Z,21.42
2022-09-03T13:37:02.319Z,21.43
2022-09-03T13:38:43.382Z,21.48
2022-09-03T13:40:00.740Z,21.53
2022-09-03T13:41:20.614Z,21.47
2022-09-03T13:42:58.789Z,21.39
2022-09-03T13:44:40.888Z,21.46
2022-09-03T13:46:24.178Z,21.41
2022-09-03T13:48:04.195Z,21.47
2022-09-03T13:50:13.213Z,21.46
2022-09-03T13:51:49.998Z,21.45
2022-09-03T13:53:05.075Z,21.44
2022-09-03T13:54:48.743Z,21.44
2022-09-03T13:56:05.319Z,21.44
2022-09-03T13:57:38.445Z,21.41
2022-09-03T13:59:00.930Z,21.44
2022-09-03T14:00:12.370Z,21.48
2022-09-03T14:01:27.052Z,21.42
2022-09-03T14:02:33.310Z,21.49
2022-09-03T14:03:57.919Z,21.51
2022-09-03T14:05:10.351Z,21.49
2022-09-03T14:06:42.685Z,21.51
2022-09-03T14:07:57.077Z,21.47
2022-09-03T14:09:12.170Z,21.52
2022-09-03T14:10:21.612Z,21.52
2022-09-03T14:12:14.556Z,21.54
2022-09-03T14:13:48.825Z,21.45
2022-09-03T14:15:11.074Z,21.41
2022-09-03T14:16:42.331Z,21.38
2022-09-03T14:18:12.370Z,21.34
2022-09-03T14:19:45.585Z,21.33
2022-09-03T14:21:29.349Z,21.33
2022-09-03T14:23:03.747Z,21.36
2022-09-03T14:25:16.429Z,21.38
2022-09-03T14:26:39.071Z,21.19
2022-09-03T14:27:43.912Z,21.20
2022-09-03T14:28:59.415Z,21.17
2022-09-03T14:30:46.693Z,21.17
2022-09-03T14:31:56.464Z,21.14
2022-09-03T14:33:55.138Z,21.07
2022-09-03T14:35:07.266Z,21.07
2022-09-03T14:36:52.874Z,21.06
2022-09-03T14:38:49.868Z,21.13
2022-09-03T14:40:04.675Z,21.06
2022-09-03T14:41:17.001Z,21.10
2022-09-03T14:43:10.289Z,21.15
2022-09-03T14:44:38.279Z,21.09
2022-09-03T14:46:28.271Z,20.96
2022-09-03T14:48:29.116Z,20.84
2022-09-03T14:50:03.803Z,20.83
2022-09-03T14:51:21.880Z,20.89
2022-09-03T14:52:49.547Z,20.89
2022-09-03T14:54:48.949Z,20.97
2022-09-03T14:56:24.314Z,20.89
2022-09-03T14:57:45.982Z,20.85
2022-09-03T14:59:31.847Z,20.89
2022-09-03T15:00:58.447Z,20.87
2022-09-03T15:02:52.706Z,20.86
2022-09-03T15:04:18.016Z,20.84
2022-09-03T15:06:05.741Z,20.84
2022-09-03T15:07:27.848Z,20.82
2022-09-03T15:09:09.990Z,20.68
2022-09-03T15:10:33.101Z,20.74
2022-09-03T15:12:19.772Z,20.74
2022-09-03T15:13:34.656Z,20.76
2022-09-03T15:14:59.191Z,20.76
2022-09-03T15:16:31.698Z,20.81
2022-09-03T15:17:49.614Z,20.86
2022-09-03T15:19:39.717Z,20.94
2022-09-03T15:21:02.092Z,20.95
2022-09-03T15:22:52.146Z,20.81
2022-09-03T15:24:18.752Z,20.83
2022-09-03T15:26:15.894Z,20.88
2022-09-03T15:28:11.899Z,20.91
2022-09-03T15:29:48.300Z,20.87
2022-09-03T15:31:02.614Z,20.86
2022-09-03T15:32:39.938Z,20.87
2022-09-03T15:34:26.370Z,20.84
2022-09-03T15:35:44.383Z,20.82
2022-09-03T15:36:54.539Z,20.64
2022-09-03T15:38:41.729Z,20.72
2022-09-03T15:39:57.182Z,20.67
2022-09-03T15:41:40.333Z,20.67
2022-09-03T15:42:48.907Z,20.59
2022-09-03T15:44:01.191Z,20.59
2022-09-03T15:45:37.078Z,20.59
2022-09-03T15:46:50.941Z,20.56
2022-09-03T15:48:09.163Z,20.51
2022-09-03T15:49:45.001Z,20.50
2022-09-03T15:51:10.137Z,20.48
2022-09-03T15:52:28.788Z,20.41
2022-09-03T15:54:07.839Z,20.35
2022-09-03T15:55:26.449Z,20.34
2022-09-03T15:57:06.991Z,20.37
2022-09-03T15:58:48.424Z,20.41
2022-09-03T16:00:04.253Z,20.36
2022-09-03T16:01:32.614Z,20.37
2022-09-03T16:03:07.839Z,20.34
2022-09-03T16:04:24.950Z,20.28
2022-09-03T16:05:55.479Z,20.22
2022-09-03T16:07:42.609Z,20.24
2022-09-03T16:09:22.938Z,20.18
2022-09-03T16:10:53.152Z,20.17
2022-09-03T16:12:21.338Z,20.14
2022-09-03T16:14:11.331Z,20.11
2022-09-03T16:15:48.656Z,20.15
2022-09-03T16:17:31.262Z,20.13
2022-09-03T16:18:45.630Z,20.11
2022-09-03T16:20:10.347Z,20.12
2022-09-03T16:45:19.993Z,19.23
2022-09-03T16:46:46.725Z,19.29
2022-09-03T16:48:37.565Z,19.37
2022-09-03T16:50:10.280Z,19.38
2022-09-03T16:51:35.334Z,19.38
2022-09-03T16:53:29.604Z,19.45
2022-09-03T16:54:42.413Z,19.44